sensor_id;sensor_type;location;lat;lon;timestamp;P1;durP1;ratioP1;P2;durP2;ratioP2
8632;SDS011;4354;49.832;10.746;2022-09-09T00:00:23;3.87;;;2.43;;
8632;SDS011;4354;49.832;10.746;2022-09-09T00:05:41;5.70;;;3.00;;
8632;SDS011;4354;49.832;10.746;2022-09-09T00:08:21;3.10;;;2.40;;
8632;SDS011;4354;49.832;10.746;2022-09-09T00:10:58;7.77;;;2.80;;
8632;SDS011;4354;49.832;10.746;2022-09-09T00:13:35;4.00;;;2.77;;
8632;SDS011;4354;49.832;10.746;2022-09-09T00:16:19;4.27;;;2.60;;
8632;SDS011;4354;49.832;10.746;2022-09-09T00:24:50;5.17;;;2.47;;
8632;SDS011;4354;49.832;10.746;2022-09-09T00:27:25;3.57;;;2.10;;
8632;SDS011;4354;49.832;10.746;2022-09-09T00:30:02;4.13;;;2.17;;
8632;SDS011;4354;49.832;10.746;2022-09-09T00:32:30;2.30;;;2.00;;
8632;SDS011;4354;49.832;10.746;2022-09-09T00:35:03;3.60;;;2.20;;
8632;SDS011;4354;49.832;10.746;2022-09-09T00:37:44;3.37;;;1.93;;
8632;SDS011;4354;49.832;10.746;2022-09-09T00:40:27;5.83;;;2.27;;
8632;SDS011;4354;49.832;10.746;2022-09-09T00:43:03;3.87;;;2.10;;
8632;SDS011;4354;49.832;10.746;2022-09-09T00:51:41;2.87;;;1.60;;
8632;SDS011;4354;49.832;10.746;2022-09-09T00:57:04;2.63;;;1.80;;
8632;SDS011;4354;49.832;10.746;2022-09-09T01:02:15;2.10;;;1.67;;
8632;SDS011;4354;49.832;10.746;2022-09-09T01:04:44;3.83;;;2.00;;
8632;SDS011;4354;49.832;10.746;2022-09-09T01:07:18;2.37;;;1.90;;
8632;SDS011;4354;49.832;10.746;2022-09-09T01:10:21;4.43;;;2.10;;
8632;SDS011;4354;49.832;10.746;2022-09-09T01:12:47;2.80;;;2.00;;
8632;SDS011;4354;49.832;10.746;2022-09-09T01:15:19;2.63;;;1.83;;
8632;SDS011;4354;49.832;10.746;2022-09-09T01:17:58;2.07;;;1.77;;
8632;SDS011;4354;49.832;10.746;2022-09-09T01:20:31;2.60;;;2.10;;
8632;SDS011;4354;49.832;10.746;2022-09-09T01:23:17;4.53;;;2.03;;
8632;SDS011;4354;49.832;10.746;2022-09-09T01:28:52;2.40;;;2.20;;
8632;SDS011;4354;49.832;10.746;2022-09-09T01:31:21;3.57;;;2.10;;
8632;SDS011;4354;49.832;10.746;2022-09-09T01:34:00;3.00;;;2.27;;
8632;SDS011;4354;49.832;10.746;2022-09-09T01:36:29;4.40;;;2.03;;
8632;SDS011;4354;49.832;10.746;2022-09-09T01:39:04;4.13;;;2.03;;
8632;SDS011;4354;49.832;10.746;2022-09-09T01:41:31;3.47;;;2.00;;
8632;SDS011;4354;49.832;10.746;2022-09-09T01:43:58;4.10;;;2.27;;
8632;SDS011;4354;49.832;10.746;2022-09-09T01:46:25;5.80;;;2.43;;
8632;SDS011;4354;49.832;10.746;2022-09-09T01:48:53;2.50;;;2.20;;
8632;SDS011;4354;49.832;10.746;2022-09-09T01:51:21;3.03;;;2.00;;
8632;SDS011;4354;49.832;10.746;2022-09-09T01:53:49;2.93;;;2.30;;
8632;SDS011;4354;49.832;10.746;2022-09-09T02:04:21;2.63;;;1.70;;
8632;SDS011;4354;49.832;10.746;2022-09-09T02:07:16;2.67;;;2.00;;
8632;SDS011;4354;49.832;10.746;2022-09-09T02:12:48;2.03;;;1.80;;
8632;SDS011;4354;49.832;10.746;2022-09-09T02:15:26;5.50;;;2.53;;
8632;SDS011;4354;49.832;10.746;2022-09-09T02:17:58;4.90;;;1.80;;
8632;SDS011;4354;49.832;10.746;2022-09-09T02:20:29;3.23;;;1.80;;
8632;SDS011;4354;49.832;10.746;2022-09-09T02:23:00;2.57;;;2.03;;
8632;SDS011;4354;49.832;10.746;2022-09-09T02:25:29;2.63;;;1.70;;
8632;SDS011;4354;49.832;10.746;2022-09-09T02:27:56;3.57;;;2.30;;
8632;SDS011;4354;49.832;10.746;2022-09-09T02:30:27;4.10;;;2.43;;
8632;SDS011;4354;49.832;10.746;2022-09-09T02:32:57;2.97;;;2.10;;
8632;SDS011;4354;49.832;10.746;2022-09-09T02:35:25;3.47;;;2.10;;
8632;SDS011;4354;49.832;10.746;2022-09-09T02:37:56;2.87;;;2.10;;
8632;SDS011;4354;49.832;10.746;2022-09-09T02:40:27;4.17;;;2.20;;
8632;SDS011;4354;49.832;10.746;2022-09-09T02:42:54;2.30;;;2.00;;
8632;SDS011;4354;49.832;10.746;2022-09-09T02:45:23;4.90;;;2.40;;
8632;SDS011;4354;49.832;10.746;2022-09-09T02:53:03;4.20;;;2.33;;
8632;SDS011;4354;49.832;10.746;2022-09-09T02:58:16;5.73;;;3.40;;
8632;SDS011;4354;49.832;10.746;2022-09-09T03:00:48;6.23;;;3.87;;
8632;SDS011;4354;49.832;10.746;2022-09-09T03:03:17;4.77;;;3.43;;
8632;SDS011;4354;49.832;10.746;2022-09-09T03:05:45;6.17;;;3.50;;
8632;SDS011;4354;49.832;10.746;2022-09-09T03:08:13;5.13;;;3.10;;
8632;SDS011;4354;49.832;10.746;2022-09-09T03:10:40;7.50;;;3.40;;
8632;SDS011;4354;49.832;10.746;2022-09-09T03:13:07;5.90;;;2.93;;
8632;SDS011;4354;49.832;10.746;2022-09-09T03:15:34;8.10;;;3.37;;
8632;SDS011;4354;49.832;10.746;2022-09-09T03:18:01;7.40;;;3.07;;
8632;SDS011;4354;49.832;10.746;2022-09-09T03:20:29;5.13;;;3.03;;
8632;SDS011;4354;49.832;10.746;2022-09-09T03:22:56;5.63;;;2.80;;
8632;SDS011;4354;49.832;10.746;2022-09-09T03:25:23;3.57;;;3.00;;
8632;SDS011;4354;49.832;10.746;2022-09-09T03:27:51;7.37;;;3.07;;
8632;SDS011;4354;49.832;10.746;2022-09-09T03:30:21;5.23;;;3.03;;
8632;SDS011;4354;49.832;10.746;2022-09-09T03:32:49;5.33;;;3.07;;
8632;SDS011;4354;49.832;10.746;2022-09-09T03:35:16;5.60;;;2.47;;
8632;SDS011;4354;49.832;10.746;2022-09-09T03:37:43;5.17;;;2.93;;
8632;SDS011;4354;49.832;10.746;2022-09-09T03:40:10;4.93;;;2.63;;
8632;SDS011;4354;49.832;10.746;2022-09-09T03:42:37;5.27;;;2.70;;
8632;SDS011;4354;49.832;10.746;2022-09-09T03:45:05;5.90;;;2.83;;
8632;SDS011;4354;49.832;10.746;2022-09-09T03:47:35;7.03;;;2.67;;
8632;SDS011;4354;49.832;10.746;2022-09-09T03:50:02;3.83;;;2.70;;
8632;SDS011;4354;49.832;10.746;2022-09-09T03:52:30;4.67;;;2.50;;
8632;SDS011;4354;49.832;10.746;2022-09-09T03:54:57;3.37;;;2.43;;
8632;SDS011;4354;49.832;10.746;2022-09-09T03:57:24;4.03;;;3.03;;
8632;SDS011;4354;49.832;10.746;2022-09-09T03:59:51;4.27;;;2.83;;
8632;SDS011;4354;49.832;10.746;2022-09-09T04:02:18;6.53;;;2.77;;
8632;SDS011;4354;49.832;10.746;2022-09-09T04:04:45;3.37;;;2.60;;
8632;SDS011;4354;49.832;10.746;2022-09-09T04:07:11;3.63;;;2.63;;
8632;SDS011;4354;49.832;10.746;2022-09-09T04:09:39;6.73;;;2.90;;
8632;SDS011;4354;49.832;10.746;2022-09-09T04:12:05;6.63;;;3.23;;
8632;SDS011;4354;49.832;10.746;2022-09-09T04:14:32;8.07;;;3.07;;
8632;SDS011;4354;49.832;10.746;2022-09-09T04:16:59;4.43;;;2.67;;
8632;SDS011;4354;49.832;10.746;2022-09-09T04:19:26;4.27;;;2.73;;
8632;SDS011;4354;49.832;10.746;2022-09-09T04:21:53;4.77;;;2.60;;
8632;SDS011;4354;49.832;10.746;2022-09-09T04:24:20;6.43;;;3.07;;
8632;SDS011;4354;49.832;10.746;2022-09-09T04:26:47;3.87;;;2.87;;
8632;SDS011;4354;49.832;10.746;2022-09-09T04:29:14;4.17;;;3.10;;
8632;SDS011;4354;49.832;10.746;2022-09-09T04:31:41;4.43;;;2.80;;
8632;SDS011;4354;49.832;10.746;2022-09-09T04:34:08;5.80;;;3.13;;
8632;SDS011;4354;49.832;10.746;2022-09-09T04:36:35;7.27;;;3.27;;
8632;SDS011;4354;49.832;10.746;2022-09-09T04:39:02;5.47;;;3.40;;
8632;SDS011;4354;49.832;10.746;2022-09-09T04:41:29;4.70;;;2.93;;
8632;SDS011;4354;49.832;10.746;2022-09-09T04:43:57;3.50;;;2.67;;
8632;SDS011;4354;49.832;10.746;2022-09-09T04:46:25;7.87;;;3.33;;
8632;SDS011;4354;49.832;10.746;2022-09-09T04:48:53;6.18;;;3.10;;
8632;SDS011;4354;49.832;10.746;2022-09-09T04:51:19;6.33;;;3.10;;
8632;SDS011;4354;49.832;10.746;2022-09-09T04:53:46;5.07;;;3.20;;
8632;SDS011;4354;49.832;10.746;2022-09-09T04:56:15;5.67;;;3.00;;
8632;SDS011;4354;49.832;10.746;2022-09-09T04:58:43;9.60;;;3.57;;
8632;SDS011;4354;49.832;10.746;2022-09-09T05:01:11;6.13;;;3.17;;
8632;SDS011;4354;49.832;10.746;2022-09-09T05:03:38;5.40;;;3.03;;
8632;SDS011;4354;49.832;10.746;2022-09-09T05:06:09;3.40;;;2.90;;
8632;SDS011;4354;49.832;10.746;2022-09-09T05:08:41;8.47;;;3.00;;
8632;SDS011;4354;49.832;10.746;2022-09-09T05:11:22;3.90;;;2.77;;
8632;SDS011;4354;49.832;10.746;2022-09-09T05:13:53;4.97;;;2.40;;
8632;SDS011;4354;49.832;10.746;2022-09-09T05:16:21;3.13;;;2.37;;
8632;SDS011;4354;49.832;10.746;2022-09-09T05:18:49;2.73;;;2.53;;
8632;SDS011;4354;49.832;10.746;2022-09-09T05:21:18;6.50;;;2.53;;
8632;SDS011;4354;49.832;10.746;2022-09-09T05:23:46;4.40;;;2.33;;
8632;SDS011;4354;49.832;10.746;2022-09-09T05:26:14;3.03;;;2.70;;
8632;SDS011;4354;49.832;10.746;2022-09-09T05:28:43;5.33;;;2.80;;
8632;SDS011;4354;49.832;10.746;2022-09-09T05:31:11;3.97;;;2.53;;
8632;SDS011;4354;49.832;10.746;2022-09-09T05:33:40;2.83;;;2.27;;
8632;SDS011;4354;49.832;10.746;2022-09-09T05:36:10;4.90;;;2.50;;
8632;SDS011;4354;49.832;10.746;2022-09-09T05:38:41;4.27;;;2.80;;
8632;SDS011;4354;49.832;10.746;2022-09-09T05:41:08;3.37;;;2.53;;
8632;SDS011;4354;49.832;10.746;2022-09-09T05:43:37;4.73;;;2.50;;
8632;SDS011;4354;49.832;10.746;2022-09-09T05:46:05;6.17;;;2.30;;
8632;SDS011;4354;49.832;10.746;2022-09-09T05:48:35;7.90;;;2.63;;
8632;SDS011;4354;49.832;10.746;2022-09-09T05:51:04;3.17;;;2.40;;
8632;SDS011;4354;49.832;10.746;2022-09-09T05:53:33;3.00;;;2.10;;
8632;SDS011;4354;49.832;10.746;2022-09-09T05:56:08;3.97;;;2.50;;
8632;SDS011;4354;49.832;10.746;2022-09-09T05:58:44;3.77;;;2.40;;
8632;SDS011;4354;49.832;10.746;2022-09-09T06:01:17;5.80;;;2.70;;
8632;SDS011;4354;49.832;10.746;2022-09-09T06:03:45;4.23;;;2.50;;
8632;SDS011;4354;49.832;10.746;2022-09-09T06:06:14;3.40;;;2.40;;
8632;SDS011;4354;49.832;10.746;2022-09-09T06:08:44;5.57;;;2.70;;
8632;SDS011;4354;49.832;10.746;2022-09-09T06:11:12;4.50;;;2.53;;
8632;SDS011;4354;49.832;10.746;2022-09-09T06:13:41;4.83;;;2.43;;
8632;SDS011;4354;49.832;10.746;2022-09-09T06:16:12;4.07;;;2.77;;
8632;SDS011;4354;49.832;10.746;2022-09-09T06:18:42;4.03;;;2.37;;
8632;SDS011;4354;49.832;10.746;2022-09-09T06:21:29;3.77;;;2.57;;
8632;SDS011;4354;49.832;10.746;2022-09-09T06:23:57;3.20;;;2.03;;
8632;SDS011;4354;49.832;10.746;2022-09-09T06:26:27;7.73;;;3.00;;
8632;SDS011;4354;49.832;10.746;2022-09-09T06:28:59;4.53;;;2.43;;
8632;SDS011;4354;49.832;10.746;2022-09-09T06:31:27;3.63;;;2.38;;
8632;SDS011;4354;49.832;10.746;2022-09-09T06:33:57;4.43;;;2.13;;
8632;SDS011;4354;49.832;10.746;2022-09-09T06:36:26;2.65;;;2.03;;
8632;SDS011;4354;49.832;10.746;2022-09-09T06:38:57;4.47;;;2.33;;
8632;SDS011;4354;49.832;10.746;2022-09-09T06:41:25;6.18;;;2.08;;
8632;SDS011;4354;49.832;10.746;2022-09-09T06:43:53;4.72;;;1.80;;
8632;SDS011;4354;49.832;10.746;2022-09-09T06:46:25;4.50;;;1.90;;
8632;SDS011;4354;49.832;10.746;2022-09-09T06:48:54;4.88;;;2.30;;
8632;SDS011;4354;49.832;10.746;2022-09-09T06:51:24;3.35;;;1.92;;
8632;SDS011;4354;49.832;10.746;2022-09-09T06:53:53;3.80;;;2.00;;
8632;SDS011;4354;49.832;10.746;2022-09-09T06:56:23;5.07;;;1.77;;
8632;SDS011;4354;49.832;10.746;2022-09-09T06:58:50;3.20;;;1.65;;
8632;SDS011;4354;49.832;10.746;2022-09-09T07:01:19;2.17;;;1.63;;
8632;SDS011;4354;49.832;10.746;2022-09-09T07:03:52;4.32;;;1.88;;
8632;SDS011;4354;49.832;10.746;2022-09-09T07:06:25;3.10;;;1.52;;
8632;SDS011;4354;49.832;10.746;2022-09-09T07:08:57;5.07;;;1.85;;
8632;SDS011;4354;49.832;10.746;2022-09-09T07:11:27;3.78;;;1.70;;
8632;SDS011;4354;49.832;10.746;2022-09-09T07:13:56;3.90;;;1.65;;
8632;SDS011;4354;49.832;10.746;2022-09-09T07:16:23;3.38;;;1.60;;
8632;SDS011;4354;49.832;10.746;2022-09-09T07:18:51;3.38;;;1.70;;
8632;SDS011;4354;49.832;10.746;2022-09-09T07:21:19;7.47;;;1.85;;
8632;SDS011;4354;49.832;10.746;2022-09-09T07:23:47;2.67;;;1.50;;
8632;SDS011;4354;49.832;10.746;2022-09-09T07:26:16;3.13;;;1.40;;
8632;SDS011;4354;49.832;10.746;2022-09-09T07:28:47;1.83;;;1.27;;
8632;SDS011;4354;49.832;10.746;2022-09-09T07:31:18;4.30;;;1.27;;
8632;SDS011;4354;49.832;10.746;2022-09-09T07:33:47;3.28;;;1.40;;
8632;SDS011;4354;49.832;10.746;2022-09-09T07:36:15;3.67;;;1.38;;
8632;SDS011;4354;49.832;10.746;2022-09-09T07:38:45;2.90;;;1.45;;
8632;SDS011;4354;49.832;10.746;2022-09-09T07:41:15;3.92;;;1.27;;
8632;SDS011;4354;49.832;10.746;2022-09-09T07:43:44;4.47;;;1.48;;
8632;SDS011;4354;49.832;10.746;2022-09-09T07:46:14;1.98;;;1.20;;
8632;SDS011;4354;49.832;10.746;2022-09-09T07:48:50;2.75;;;1.38;;
8632;SDS011;4354;49.832;10.746;2022-09-09T07:51:42;2.40;;;1.42;;
8632;SDS011;4354;49.832;10.746;2022-09-09T07:54:10;3.92;;;1.48;;
8632;SDS011;4354;49.832;10.746;2022-09-09T07:56:39;5.18;;;1.50;;
8632;SDS011;4354;49.832;10.746;2022-09-09T07:59:07;4.22;;;1.10;;
8632;SDS011;4354;49.832;10.746;2022-09-09T08:01:42;4.18;;;1.40;;
8632;SDS011;4354;49.832;10.746;2022-09-09T08:04:13;3.65;;;1.30;;
8632;SDS011;4354;49.832;10.746;2022-09-09T08:06:44;3.17;;;1.30;;
8632;SDS011;4354;49.832;10.746;2022-09-09T08:09:12;3.67;;;1.40;;
8632;SDS011;4354;49.832;10.746;2022-09-09T08:11:40;3.03;;;1.30;;
8632;SDS011;4354;49.832;10.746;2022-09-09T08:14:07;2.03;;;1.05;;
8632;SDS011;4354;49.832;10.746;2022-09-09T08:16:37;3.42;;;1.20;;
8632;SDS011;4354;49.832;10.746;2022-09-09T08:19:06;2.38;;;1.10;;
8632;SDS011;4354;49.832;10.746;2022-09-09T08:21:34;2.85;;;1.20;;
8632;SDS011;4354;49.832;10.746;2022-09-09T08:24:03;2.67;;;1.10;;
8632;SDS011;4354;49.832;10.746;2022-09-09T08:26:35;7.22;;;1.27;;
8632;SDS011;4354;49.832;10.746;2022-09-09T08:29:04;1.77;;;0.70;;
8632;SDS011;4354;49.832;10.746;2022-09-09T08:31:36;4.63;;;1.00;;
8632;SDS011;4354;49.832;10.746;2022-09-09T08:34:05;2.10;;;0.80;;
8632;SDS011;4354;49.832;10.746;2022-09-09T08:36:34;1.95;;;0.80;;
8632;SDS011;4354;49.832;10.746;2022-09-09T08:39:06;2.88;;;0.70;;
8632;SDS011;4354;49.832;10.746;2022-09-09T08:50:38;4.50;;;0.90;;
8632;SDS011;4354;49.832;10.746;2022-09-09T08:53:17;5.78;;;1.00;;
8632;SDS011;4354;49.832;10.746;2022-09-09T08:55:54;2.10;;;0.90;;
8632;SDS011;4354;49.832;10.746;2022-09-09T08:58:26;1.35;;;0.90;;
8632;SDS011;4354;49.832;10.746;2022-09-09T09:08:56;3.95;;;0.95;;
8632;SDS011;4354;49.832;10.746;2022-09-09T09:11:26;1.83;;;0.90;;
8632;SDS011;4354;49.832;10.746;2022-09-09T09:13:58;3.35;;;1.08;;
8632;SDS011;4354;49.832;10.746;2022-09-09T09:16:38;2.25;;;1.00;;
8632;SDS011;4354;49.832;10.746;2022-09-09T09:19:30;2.42;;;0.82;;
8632;SDS011;4354;49.832;10.746;2022-09-09T09:25:09;3.55;;;1.30;;
8632;SDS011;4354;49.832;10.746;2022-09-09T09:30:22;3.67;;;1.20;;
8632;SDS011;4354;49.832;10.746;2022-09-09T09:32:57;2.63;;;1.00;;
8632;SDS011;4354;49.832;10.746;2022-09-09T09:35:34;5.10;;;1.23;;
8632;SDS011;4354;49.832;10.746;2022-09-09T09:38:27;4.05;;;1.25;;
8632;SDS011;4354;49.832;10.746;2022-09-09T09:41:15;5.13;;;1.27;;
8632;SDS011;4354;49.832;10.746;2022-09-09T09:43:52;3.00;;;1.05;;
8632;SDS011;4354;49.832;10.746;2022-09-09T09:46:20;4.43;;;1.10;;
8632;SDS011;4354;49.832;10.746;2022-09-09T09:49:08;3.28;;;1.20;;
8632;SDS011;4354;49.832;10.746;2022-09-09T09:51:35;6.03;;;1.10;;
8632;SDS011;4354;49.832;10.746;2022-09-09T09:56:55;4.28;;;1.30;;
8632;SDS011;4354;49.832;10.746;2022-09-09T10:02:15;5.13;;;0.93;;
8632;SDS011;4354;49.832;10.746;2022-09-09T10:05:03;3.30;;;1.13;;
8632;SDS011;4354;49.832;10.746;2022-09-09T10:07:32;3.65;;;1.02;;
8632;SDS011;4354;49.832;10.746;2022-09-09T10:10:00;3.35;;;1.30;;
8632;SDS011;4354;49.832;10.746;2022-09-09T10:18:13;3.80;;;1.00;;
8632;SDS011;4354;49.832;10.746;2022-09-09T10:29:18;4.15;;;0.93;;
8632;SDS011;4354;49.832;10.746;2022-09-09T10:42:58;2.47;;;1.08;;
8632;SDS011;4354;49.832;10.746;2022-09-09T10:48:40;3.63;;;1.02;;
8632;SDS011;4354;49.832;10.746;2022-09-09T10:54:13;3.35;;;0.90;;
8632;SDS011;4354;49.832;10.746;2022-09-09T10:56:49;2.80;;;1.15;;
8632;SDS011;4354;49.832;10.746;2022-09-09T10:59:24;4.47;;;1.23;;
8632;SDS011;4354;49.832;10.746;2022-09-09T11:01:57;3.08;;;1.15;;
8632;SDS011;4354;49.832;10.746;2022-09-09T11:07:41;2.47;;;1.05;;
8632;SDS011;4354;49.832;10.746;2022-09-09T11:13:18;2.67;;;1.20;;
8632;SDS011;4354;49.832;10.746;2022-09-09T11:22:05;4.15;;;1.23;;
8632;SDS011;4354;49.832;10.746;2022-09-09T11:30:18;3.05;;;1.10;;
8632;SDS011;4354;49.832;10.746;2022-09-09T11:36:13;5.60;;;1.10;;
8632;SDS011;4354;49.832;10.746;2022-09-09T11:38:52;3.47;;;1.00;;
8632;SDS011;4354;49.832;10.746;2022-09-09T11:41:32;7.28;;;1.33;;
8632;SDS011;4354;49.832;10.746;2022-09-09T11:44:10;3.72;;;0.93;;
8632;SDS011;4354;49.832;10.746;2022-09-09T11:46:38;1.70;;;0.85;;
8632;SDS011;4354;49.832;10.746;2022-09-09T11:49:25;2.38;;;0.70;;
8632;SDS011;4354;49.832;10.746;2022-09-09T11:51:52;5.05;;;1.10;;
8632;SDS011;4354;49.832;10.746;2022-09-09T11:54:29;3.00;;;0.70;;
8632;SDS011;4354;49.832;10.746;2022-09-09T11:56:58;6.50;;;0.90;;
8632;SDS011;4354;49.832;10.746;2022-09-09T11:59:32;2.47;;;0.73;;
8632;SDS011;4354;49.832;10.746;2022-09-09T12:02:19;4.03;;;0.60;;
8632;SDS011;4354;49.832;10.746;2022-09-09T12:05:12;4.28;;;0.70;;
8632;SDS011;4354;49.832;10.746;2022-09-09T12:07:41;3.55;;;0.60;;
8632;SDS011;4354;49.832;10.746;2022-09-09T12:10:27;1.92;;;0.50;;
8632;SDS011;4354;49.832;10.746;2022-09-09T12:13:09;3.25;;;0.70;;
8632;SDS011;4354;49.832;10.746;2022-09-09T12:15:47;1.42;;;0.50;;
8632;SDS011;4354;49.832;10.746;2022-09-09T12:18:21;1.25;;;0.40;;
8632;SDS011;4354;49.832;10.746;2022-09-09T12:21:05;2.20;;;0.63;;
8632;SDS011;4354;49.832;10.746;2022-09-09T12:23:45;3.78;;;0.60;;
8632;SDS011;4354;49.832;10.746;2022-09-09T12:34:12;2.13;;;0.50;;
8632;SDS011;4354;49.832;10.746;2022-09-09T12:36:42;1.83;;;0.57;;
8632;SDS011;4354;49.832;10.746;2022-09-09T12:39:21;2.30;;;0.73;;
8632;SDS011;4354;49.832;10.746;2022-09-09T12:42:24;1.65;;;0.50;;
8632;SDS011;4354;49.832;10.746;2022-09-09T12:47:19;1.45;;;0.50;;
8632;SDS011;4354;49.832;10.746;2022-09-09T12:49:55;2.20;;;0.70;;
8632;SDS011;4354;49.832;10.746;2022-09-09T12:52:30;1.65;;;0.40;;
8632;SDS011;4354;49.832;10.746;2022-09-09T12:55:02;1.35;;;0.50;;
8632;SDS011;4354;49.832;10.746;2022-09-09T12:57:44;3.45;;;0.57;;
8632;SDS011;4354;49.832;10.746;2022-09-09T13:00:15;1.58;;;0.60;;
8632;SDS011;4354;49.832;10.746;2022-09-09T13:02:52;1.52;;;0.52;;
8632;SDS011;4354;49.832;10.746;2022-09-09T13:05:26;2.35;;;0.70;;
8632;SDS011;4354;49.832;10.746;2022-09-09T13:08:01;2.20;;;0.85;;
8632;SDS011;4354;49.832;10.746;2022-09-09T13:10:32;3.88;;;0.88;;
8632;SDS011;4354;49.832;10.746;2022-09-09T13:13:23;2.35;;;0.77;;
8632;SDS011;4354;49.832;10.746;2022-09-09T13:19:00;3.50;;;0.60;;
8632;SDS011;4354;49.832;10.746;2022-09-09T13:21:39;2.05;;;0.65;;
8632;SDS011;4354;49.832;10.746;2022-09-09T13:24:07;2.88;;;0.80;;
8632;SDS011;4354;49.832;10.746;2022-09-09T13:26:54;2.50;;;0.63;;
8632;SDS011;4354;49.832;10.746;2022-09-09T13:29:22;1.27;;;0.50;;
8632;SDS011;4354;49.832;10.746;2022-09-09T13:31:50;1.77;;;0.60;;
8632;SDS011;4354;49.832;10.746;2022-09-09T13:34:26;1.45;;;0.52;;
8632;SDS011;4354;49.832;10.746;2022-09-09T13:37:01;2.25;;;0.65;;
8632;SDS011;4354;49.832;10.746;2022-09-09T13:39:34;1.30;;;0.50;;
8632;SDS011;4354;49.832;10.746;2022-09-09T13:42:03;2.10;;;0.65;;
8632;SDS011;4354;49.832;10.746;2022-09-09T13:44:31;1.35;;;0.60;;
8632;SDS011;4354;49.832;10.746;2022-09-09T13:49:46;2.10;;;0.70;;
8632;SDS011;4354;49.832;10.746;2022-09-09T13:52:14;2.38;;;0.63;;
8632;SDS011;4354;49.832;10.746;2022-09-09T13:54:46;3.28;;;0.57;;
8632;SDS011;4354;49.832;10.746;2022-09-09T13:57:18;2.80;;;0.50;;
8632;SDS011;4354;49.832;10.746;2022-09-09T13:59:51;1.60;;;0.60;;
8632;SDS011;4354;49.832;10.746;2022-09-09T14:02:30;1.50;;;0.60;;
8632;SDS011;4354;49.832;10.746;2022-09-09T14:04:57;2.00;;;0.60;;
8632;SDS011;4354;49.832;10.746;2022-09-09T14:07:24;2.08;;;0.80;;
8632;SDS011;4354;49.832;10.746;2022-09-09T14:09:51;2.28;;;0.50;;
8632;SDS011;4354;49.832;10.746;2022-09-09T14:12:18;1.08;;;0.63;;
8632;SDS011;4354;49.832;10.746;2022-09-09T14:14:46;2.15;;;0.70;;
8632;SDS011;4354;49.832;10.746;2022-09-09T14:17:13;2.13;;;0.70;;
8632;SDS011;4354;49.832;10.746;2022-09-09T14:19:41;2.00;;;0.50;;
8632;SDS011;4354;49.832;10.746;2022-09-09T14:22:08;4.15;;;0.50;;
8632;SDS011;4354;49.832;10.746;2022-09-09T14:24:35;3.10;;;0.77;;
8632;SDS011;4354;49.832;10.746;2022-09-09T14:27:02;2.50;;;0.70;;
8632;SDS011;4354;49.832;10.746;2022-09-09T14:29:29;2.42;;;0.90;;
8632;SDS011;4354;49.832;10.746;2022-09-09T14:31:56;3.03;;;0.70;;
8632;SDS011;4354;49.832;10.746;2022-09-09T14:34:22;2.28;;;0.60;;
8632;SDS011;4354;49.832;10.746;2022-09-09T14:36:50;2.15;;;0.90;;
8632;SDS011;4354;49.832;10.746;2022-09-09T14:39:17;2.65;;;0.45;;
8632;SDS011;4354;49.832;10.746;2022-09-09T14:41:44;1.80;;;0.75;;
8632;SDS011;4354;49.832;10.746;2022-09-09T14:44:11;1.98;;;0.63;;
8632;SDS011;4354;49.832;10.746;2022-09-09T14:46:38;2.72;;;0.80;;
8632;SDS011;4354;49.832;10.746;2022-09-09T14:49:05;5.30;;;0.80;;
8632;SDS011;4354;49.832;10.746;2022-09-09T14:51:32;2.45;;;0.80;;
8632;SDS011;4354;49.832;10.746;2022-09-09T14:53:59;2.33;;;0.65;;
8632;SDS011;4354;49.832;10.746;2022-09-09T14:56:29;2.38;;;0.70;;
8632;SDS011;4354;49.832;10.746;2022-09-09T14:58:57;3.25;;;0.80;;
8632;SDS011;4354;49.832;10.746;2022-09-09T15:01:27;3.53;;;0.70;;
8632;SDS011;4354;49.832;10.746;2022-09-09T15:03:56;3.05;;;0.73;;
8632;SDS011;4354;49.832;10.746;2022-09-09T15:06:29;1.25;;;0.47;;
8632;SDS011;4354;49.832;10.746;2022-09-09T15:08:59;1.10;;;0.50;;
8632;SDS011;4354;49.832;10.746;2022-09-09T15:11:28;2.35;;;0.65;;
8632;SDS011;4354;49.832;10.746;2022-09-09T15:14:00;1.88;;;0.50;;
8632;SDS011;4354;49.832;10.746;2022-09-09T15:16:27;2.30;;;0.77;;
8632;SDS011;4354;49.832;10.746;2022-09-09T15:18:55;1.85;;;0.60;;
8632;SDS011;4354;49.832;10.746;2022-09-09T15:21:24;1.88;;;0.65;;
8632;SDS011;4354;49.832;10.746;2022-09-09T15:23:53;1.65;;;0.57;;
8632;SDS011;4354;49.832;10.746;2022-09-09T15:26:19;2.72;;;0.70;;
8632;SDS011;4354;49.832;10.746;2022-09-09T15:28:47;1.13;;;0.50;;
8632;SDS011;4354;49.832;10.746;2022-09-09T15:31:19;3.20;;;0.70;;
8632;SDS011;4354;49.832;10.746;2022-09-09T15:33:49;1.00;;;0.52;;
8632;SDS011;4354;49.832;10.746;2022-09-09T15:36:21;3.70;;;0.65;;
8632;SDS011;4354;49.832;10.746;2022-09-09T15:38:49;2.75;;;0.80;;
8632;SDS011;4354;49.832;10.746;2022-09-09T15:41:18;3.22;;;0.70;;
8632;SDS011;4354;49.832;10.746;2022-09-09T15:43:46;2.35;;;0.70;;
8632;SDS011;4354;49.832;10.746;2022-09-09T15:46:24;1.83;;;0.93;;
8632;SDS011;4354;49.832;10.746;2022-09-09T15:51:43;2.50;;;0.80;;
8632;SDS011;4354;49.832;10.746;2022-09-09T15:54:13;2.75;;;0.70;;
8632;SDS011;4354;49.832;10.746;2022-09-09T15:56:43;1.33;;;0.65;;
8632;SDS011;4354;49.832;10.746;2022-09-09T15:59:11;1.80;;;0.65;;
8632;SDS011;4354;49.832;10.746;2022-09-09T16:01:38;2.70;;;0.60;;
8632;SDS011;4354;49.832;10.746;2022-09-09T16:04:05;1.73;;;0.70;;
8632;SDS011;4354;49.832;10.746;2022-09-09T16:06:32;3.97;;;0.80;;
8632;SDS011;4354;49.832;10.746;2022-09-09T16:09:01;4.82;;;1.02;;
8632;SDS011;4354;49.832;10.746;2022-09-09T16:11:31;1.65;;;0.60;;
8632;SDS011;4354;49.832;10.746;2022-09-09T16:14:03;3.30;;;0.80;;
8632;SDS011;4354;49.832;10.746;2022-09-09T16:16:31;3.63;;;1.02;;
8632;SDS011;4354;49.832;10.746;2022-09-09T16:19:02;2.60;;;0.82;;
8632;SDS011;4354;49.832;10.746;2022-09-09T16:21:42;2.75;;;0.88;;
8632;SDS011;4354;49.832;10.746;2022-09-09T16:24:11;3.08;;;1.00;;
8632;SDS011;4354;49.832;10.746;2022-09-09T16:26:41;2.70;;;0.88;;
8632;SDS011;4354;49.832;10.746;2022-09-09T16:29:12;2.65;;;0.70;;
8632;SDS011;4354;49.832;10.746;2022-09-09T16:31:40;6.05;;;1.00;;
8632;SDS011;4354;49.832;10.746;2022-09-09T16:34:08;4.07;;;0.82;;
8632;SDS011;4354;49.832;10.746;2022-09-09T16:36:36;1.70;;;0.73;;
8632;SDS011;4354;49.832;10.746;2022-09-09T16:39:06;2.20;;;0.80;;
8632;SDS011;4354;49.832;10.746;2022-09-09T16:41:38;3.15;;;0.90;;
8632;SDS011;4354;49.832;10.746;2022-09-09T16:44:07;2.88;;;0.80;;
8632;SDS011;4354;49.832;10.746;2022-09-09T16:46:37;3.42;;;0.98;;
8632;SDS011;4354;49.832;10.746;2022-09-09T16:49:06;3.03;;;0.70;;
8632;SDS011;4354;49.832;10.746;2022-09-09T16:51:42;2.38;;;0.70;;
8632;SDS011;4354;49.832;10.746;2022-09-09T16:54:14;2.13;;;0.85;;
8632;SDS011;4354;49.832;10.746;2022-09-09T16:56:43;3.15;;;1.00;;
8632;SDS011;4354;49.832;10.746;2022-09-09T16:59:17;2.22;;;0.70;;
8632;SDS011;4354;49.832;10.746;2022-09-09T17:01:45;1.65;;;0.50;;
8632;SDS011;4354;49.832;10.746;2022-09-09T17:04:19;2.38;;;0.77;;
8632;SDS011;4354;49.832;10.746;2022-09-09T17:06:52;1.42;;;0.63;;
8632;SDS011;4354;49.832;10.746;2022-09-09T17:09:20;1.85;;;0.63;;
8632;SDS011;4354;49.832;10.746;2022-09-09T17:11:49;0.90;;;0.40;;
8632;SDS011;4354;49.832;10.746;2022-09-09T17:14:18;1.30;;;0.63;;
8632;SDS011;4354;49.832;10.746;2022-09-09T17:16:46;1.90;;;0.60;;
8632;SDS011;4354;49.832;10.746;2022-09-09T17:19:16;1.58;;;0.50;;
8632;SDS011;4354;49.832;10.746;2022-09-09T17:21:44;1.10;;;0.43;;
8632;SDS011;4354;49.832;10.746;2022-09-09T17:24:33;0.95;;;0.35;;
8632;SDS011;4354;49.832;10.746;2022-09-09T17:27:00;1.10;;;0.50;;
8632;SDS011;4354;49.832;10.746;2022-09-09T17:29:28;1.27;;;0.60;;
8632;SDS011;4354;49.832;10.746;2022-09-09T17:31:55;1.23;;;0.50;;
8632;SDS011;4354;49.832;10.746;2022-09-09T17:34:22;2.42;;;0.63;;
8632;SDS011;4354;49.832;10.746;2022-09-09T17:36:50;2.13;;;0.60;;
8632;SDS011;4354;49.832;10.746;2022-09-09T17:39:18;1.90;;;0.50;;
8632;SDS011;4354;49.832;10.746;2022-09-09T17:41:45;1.67;;;0.52;;
8632;SDS011;4354;49.832;10.746;2022-09-09T17:44:12;0.75;;;0.47;;
8632;SDS011;4354;49.832;10.746;2022-09-09T17:46:39;2.22;;;0.65;;